sensor_id;sensor_type;location;lat;lon;timestamp;P1;durP1;ratioP1;P2;durP2;ratioP2
49934;SDS011;39898;41.762;26.200;2022-12-20T01:35:53;23.73;;;9.05;;
49934;SDS011;39898;41.762;26.200;2022-12-20T01:38:22;21.08;;;8.73;;
49934;SDS011;39898;41.762;26.200;2022-12-20T01:40:49;17.35;;;8.00;;
49934;SDS011;39898;41.762;26.200;2022-12-20T01:43:17;24.53;;;7.57;;
49934;SDS011;39898;41.762;26.200;2022-12-20T01:45:45;21.02;;;7.05;;
49934;SDS011;39898;41.762;26.200;2022-12-20T01:48:16;29.70;;;10.60;;
49934;SDS011;39898;41.762;26.200;2022-12-20T01:50:47;23.02;;;8.77;;
49934;SDS011;39898;41.762;26.200;2022-12-20T01:53:15;24.50;;;8.27;;
49934;SDS011;39898;41.762;26.200;2022-12-20T01:55:44;21.00;;;9.45;;
49934;SDS011;39898;41.762;26.200;2022-12-20T01:58:13;12.50;;;5.95;;
49934;SDS011;39898;41.762;26.200;2022-12-20T02:00:43;23.58;;;8.43;;
49934;SDS011;39898;41.762;26.200;2022-12-20T02:03:10;31.50;;;8.30;;
49934;SDS011;39898;41.762;26.200;2022-12-20T02:05:40;16.73;;;7.05;;
49934;SDS011;39898;41.762;26.200;2022-12-20T02:08:10;28.65;;;10.05;;
49934;SDS011;39898;41.762;26.200;2022-12-20T02:13:41;6.68;;;4.55;;
49934;SDS011;39898;41.762;26.200;2022-12-20T02:16:50;21.23;;;9.88;;
49934;SDS011;39898;41.762;26.200;2022-12-20T02:30:25;21.33;;;8.88;;
49934;SDS011;39898;41.762;26.200;2022-12-20T02:35:29;25.15;;;9.30;;
49934;SDS011;39898;41.762;26.200;2022-12-20T02:37:58;27.35;;;9.90;;
49934;SDS011;39898;41.762;26.200;2022-12-20T02:40:30;24.60;;;9.98;;
49934;SDS011;39898;41.762;26.200;2022-12-20T02:43:02;22.15;;;7.97;;
49934;SDS011;39898;41.762;26.200;2022-12-20T02:45:52;28.42;;;9.75;;
49934;SDS011;39898;41.762;26.200;2022-12-20T02:48:21;15.02;;;6.43;;
49934;SDS011;39898;41.762;26.200;2022-12-20T02:50:52;30.00;;;9.05;;
49934;SDS011;39898;41.762;26.200;2022-12-20T02:53:22;15.50;;;6.10;;
49934;SDS011;39898;41.762;26.200;2022-12-20T02:55:53;19.35;;;7.25;;
49934;SDS011;39898;41.762;26.200;2022-12-20T02:58:28;16.60;;;8.05;;
49934;SDS011;39898;41.762;26.200;2022-12-20T03:01:00;22.80;;;8.75;;
49934;SDS011;39898;41.762;26.200;2022-12-20T03:03:32;20.58;;;8.07;;
49934;SDS011;39898;41.762;26.200;2022-12-20T03:06:01;18.73;;;7.80;;
49934;SDS011;39898;41.762;26.200;2022-12-20T03:08:28;19.83;;;9.23;;
49934;SDS011;39898;41.762;26.200;2022-12-20T03:10:55;27.45;;;10.07;;
49934;SDS011;39898;41.762;26.200;2022-12-20T03:13:23;26.60;;;11.20;;
49934;SDS011;39898;41.762;26.200;2022-12-20T03:15:50;26.10;;;9.43;;
49934;SDS011;39898;41.762;26.200;2022-12-20T03:18:17;27.38;;;9.82;;
49934;SDS011;39898;41.762;26.200;2022-12-20T03:20:44;25.35;;;10.88;;
49934;SDS011;39898;41.762;26.200;2022-12-20T03:23:10;29.65;;;9.85;;
49934;SDS011;39898;41.762;26.200;2022-12-20T03:25:37;26.33;;;10.65;;
49934;SDS011;39898;41.762;26.200;2022-12-20T03:28:04;25.30;;;9.60;;
49934;SDS011;39898;41.762;26.200;2022-12-20T03:30:30;25.13;;;9.05;;
49934;SDS011;39898;41.762;26.200;2022-12-20T03:32:57;18.65;;;8.55;;
49934;SDS011;39898;41.762;26.200;2022-12-20T03:35:24;28.58;;;9.75;;
49934;SDS011;39898;41.762;26.200;2022-12-20T03:37:51;26.77;;;9.38;;
49934;SDS011;39898;41.762;26.200;2022-12-20T03:40:17;27.80;;;10.00;;
49934;SDS011;39898;41.762;26.200;2022-12-20T03:42:44;26.75;;;9.48;;
49934;SDS011;39898;41.762;26.200;2022-12-20T03:45:11;26.73;;;9.15;;
49934;SDS011;39898;41.762;26.200;2022-12-20T03:47:38;29.90;;;10.80;;
49934;SDS011;39898;41.762;26.200;2022-12-20T03:50:05;26.58;;;10.80;;
49934;SDS011;39898;41.762;26.200;2022-12-20T03:52:32;27.67;;;12.48;;
49934;SDS011;39898;41.762;26.200;2022-12-20T03:54:59;18.83;;;7.20;;
49934;SDS011;39898;41.762;26.200;2022-12-20T03:57:26;23.83;;;9.70;;
49934;SDS011;39898;41.762;26.200;2022-12-20T03:59:52;21.05;;;9.40;;
49934;SDS011;39898;41.762;26.200;2022-12-20T04:02:19;34.65;;;11.98;;
49934;SDS011;39898;41.762;26.200;2022-12-20T04:04:47;28.63;;;10.13;;
49934;SDS011;39898;41.762;26.200;2022-12-20T04:07:14;18.13;;;7.37;;
49934;SDS011;39898;41.762;26.200;2022-12-20T04:09:40;32.53;;;13.60;;
49934;SDS011;39898;41.762;26.200;2022-12-20T04:12:07;25.00;;;9.73;;
49934;SDS011;39898;41.762;26.200;2022-12-20T04:14:34;19.83;;;7.95;;
49934;SDS011;39898;41.762;26.200;2022-12-20T04:17:02;29.38;;;11.80;;
49934;SDS011;39898;41.762;26.200;2022-12-20T04:19:29;26.55;;;11.10;;
49934;SDS011;39898;41.762;26.200;2022-12-20T04:21:56;34.58;;;12.48;;
49934;SDS011;39898;41.762;26.200;2022-12-20T04:24:30;31.05;;;11.73;;
49934;SDS011;39898;41.762;26.200;2022-12-20T04:26:57;128.73;;;35.38;;
49934;SDS011;39898;41.762;26.200;2022-12-20T04:29:23;41.55;;;17.65;;
49934;SDS011;39898;41.762;26.200;2022-12-20T04:31:50;71.75;;;21.55;;
49934;SDS011;39898;41.762;26.200;2022-12-20T04:34:17;42.72;;;14.23;;
49934;SDS011;39898;41.762;26.200;2022-12-20T04:36:44;46.03;;;17.13;;
49934;SDS011;39898;41.762;26.200;2022-12-20T04:39:10;46.45;;;18.85;;
49934;SDS011;39898;41.762;26.200;2022-12-20T04:41:37;36.30;;;13.23;;
49934;SDS011;39898;41.762;26.200;2022-12-20T04:44:04;36.92;;;15.18;;
49934;SDS011;39898;41.762;26.200;2022-12-20T04:46:30;26.13;;;10.85;;
49934;SDS011;39898;41.762;26.200;2022-12-20T04:48:57;26.15;;;10.07;;
49934;SDS011;39898;41.762;26.200;2022-12-20T04:51:25;42.97;;;17.85;;
49934;SDS011;39898;41.762;26.200;2022-12-20T04:56:21;26.88;;;11.23;;
49934;SDS011;39898;41.762;26.200;2022-12-20T04:58:54;16.33;;;7.32;;
49934;SDS011;39898;41.762;26.200;2022-12-20T05:01:22;33.33;;;11.68;;
49934;SDS011;39898;41.762;26.200;2022-12-20T05:03:50;32.97;;;12.73;;
49934;SDS011;39898;41.762;26.200;2022-12-20T05:06:17;26.10;;;11.75;;
49934;SDS011;39898;41.762;26.200;2022-12-20T05:08:43;41.30;;;16.77;;
49934;SDS011;39898;41.762;26.200;2022-12-20T05:11:10;56.88;;;21.60;;
49934;SDS011;39898;41.762;26.200;2022-12-20T05:13:37;25.23;;;11.32;;
49934;SDS011;39898;41.762;26.200;2022-12-20T05:16:04;32.53;;;14.43;;
49934;SDS011;39898;41.762;26.200;2022-12-20T05:18:31;37.30;;;14.80;;
49934;SDS011;39898;41.762;26.200;2022-12-20T05:20:58;49.40;;;15.63;;
49934;SDS011;39898;41.762;26.200;2022-12-20T05:23:45;43.53;;;14.85;;
49934;SDS011;39898;41.762;26.200;2022-12-20T05:28:56;26.98;;;12.07;;
49934;SDS011;39898;41.762;26.200;2022-12-20T05:31:23;37.55;;;14.70;;
49934;SDS011;39898;41.762;26.200;2022-12-20T05:36:15;30.65;;;12.73;;
49934;SDS011;39898;41.762;26.200;2022-12-20T05:38:41;28.90;;;10.73;;
49934;SDS011;39898;41.762;26.200;2022-12-20T05:41:08;27.30;;;11.82;;
49934;SDS011;39898;41.762;26.200;2022-12-20T05:43:35;32.47;;;11.93;;
49934;SDS011;39898;41.762;26.200;2022-12-20T05:46:02;28.60;;;10.38;;
49934;SDS011;39898;41.762;26.200;2022-12-20T05:48:28;33.38;;;13.23;;
49934;SDS011;39898;41.762;26.200;2022-12-20T05:50:55;31.00;;;13.00;;
49934;SDS011;39898;41.762;26.200;2022-12-20T05:53:22;51.67;;;15.45;;
49934;SDS011;39898;41.762;26.200;2022-12-20T05:55:50;46.90;;;18.23;;
49934;SDS011;39898;41.762;26.200;2022-12-20T05:58:18;40.65;;;18.23;;
49934;SDS011;39898;41.762;26.200;2022-12-20T06:00:45;68.47;;;21.38;;
49934;SDS011;39898;41.762;26.200;2022-12-20T06:05:38;51.00;;;21.92;;
49934;SDS011;39898;41.762;26.200;2022-12-20T06:08:05;63.13;;;22.65;;
49934;SDS011;39898;41.762;26.200;2022-12-20T06:13:00;43.05;;;15.55;;
49934;SDS011;39898;41.762;26.200;2022-12-20T06:15:28;41.45;;;14.88;;
49934;SDS011;39898;41.762;26.200;2022-12-20T06:20:22;38.47;;;12.55;;
49934;SDS011;39898;41.762;26.200;2022-12-20T06:22:49;35.00;;;13.70;;
49934;SDS011;39898;41.762;26.200;2022-12-20T06:25:15;49.92;;;20.00;;
49934;SDS011;39898;41.762;26.200;2022-12-20T06:27:42;27.63;;;10.13;;
49934;SDS011;39898;41.762;26.200;2022-12-20T06:30:09;37.83;;;14.57;;
49934;SDS011;39898;41.762;26.200;2022-12-20T06:32:37;30.90;;;13.32;;
49934;SDS011;39898;41.762;26.200;2022-12-20T06:35:04;47.58;;;15.77;;
49934;SDS011;39898;41.762;26.200;2022-12-20T06:37:31;22.45;;;11.55;;
49934;SDS011;39898;41.762;26.200;2022-12-20T06:39:58;35.58;;;14.90;;
49934;SDS011;39898;41.762;26.200;2022-12-20T06:42:25;42.55;;;18.55;;
49934;SDS011;39898;41.762;26.200;2022-12-20T06:44:52;44.38;;;16.10;;
49934;SDS011;39898;41.762;26.200;2022-12-20T06:47:19;30.20;;;13.00;;
49934;SDS011;39898;41.762;26.200;2022-12-20T06:49:45;23.85;;;11.32;;
49934;SDS011;39898;41.762;26.200;2022-12-20T06:52:12;30.98;;;13.32;;
49934;SDS011;39898;41.762;26.200;2022-12-20T06:54:38;28.80;;;12.40;;
49934;SDS011;39898;41.762;26.200;2022-12-20T06:57:05;31.58;;;11.38;;
49934;SDS011;39898;41.762;26.200;2022-12-20T06:59:32;46.00;;;15.48;;
49934;SDS011;39898;41.762;26.200;2022-12-20T07:01:59;18.27;;;8.57;;
49934;SDS011;39898;41.762;26.200;2022-12-20T07:04:26;35.75;;;14.00;;
49934;SDS011;39898;41.762;26.200;2022-12-20T07:06:53;56.13;;;22.45;;
49934;SDS011;39898;41.762;26.200;2022-12-20T07:09:19;30.10;;;12.02;;
49934;SDS011;39898;41.762;26.200;2022-12-20T07:11:46;40.55;;;16.70;;
49934;SDS011;39898;41.762;26.200;2022-12-20T07:14:12;49.90;;;19.02;;
49934;SDS011;39898;41.762;26.200;2022-12-20T07:16:39;49.35;;;19.52;;
49934;SDS011;39898;41.762;26.200;2022-12-20T07:19:10;28.23;;;11.52;;
49934;SDS011;39898;41.762;26.200;2022-12-20T07:21:37;44.13;;;17.60;;
49934;SDS011;39898;41.762;26.200;2022-12-20T07:24:04;48.22;;;19.30;;
49934;SDS011;39898;41.762;26.200;2022-12-20T07:26:31;38.22;;;17.35;;
49934;SDS011;39898;41.762;26.200;2022-12-20T07:28:58;31.83;;;12.65;;
49934;SDS011;39898;41.762;26.200;2022-12-20T07:31:25;53.70;;;19.40;;
49934;SDS011;39898;41.762;26.200;2022-12-20T07:33:51;33.63;;;12.90;;
49934;SDS011;39898;41.762;26.200;2022-12-20T07:36:18;38.92;;;16.58;;
49934;SDS011;39898;41.762;26.200;2022-12-20T07:38:45;24.88;;;10.15;;
49934;SDS011;39898;41.762;26.200;2022-12-20T07:41:13;42.13;;;15.23;;
49934;SDS011;39898;41.762;26.200;2022-12-20T07:43:42;35.42;;;13.50;;
49934;SDS011;39898;41.762;26.200;2022-12-20T07:46:09;36.87;;;15.47;;
49934;SDS011;39898;41.762;26.200;2022-12-20T07:48:38;46.13;;;16.17;;
49934;SDS011;39898;41.762;26.200;2022-12-20T07:51:05;37.20;;;13.70;;
49934;SDS011;39898;41.762;26.200;2022-12-20T07:53:52;45.25;;;17.70;;
49934;SDS011;39898;41.762;26.200;2022-12-20T07:56:24;38.08;;;18.33;;
49934;SDS011;39898;41.762;26.200;2022-12-20T07:58:53;32.65;;;11.35;;
49934;SDS011;39898;41.762;26.200;2022-12-20T08:01:25;54.42;;;18.05;;
49934;SDS011;39898;41.762;26.200;2022-12-20T08:03:55;38.22;;;15.27;;
49934;SDS011;39898;41.762;26.200;2022-12-20T08:06:44;40.10;;;14.95;;
49934;SDS011;39898;41.762;26.200;2022-12-20T08:09:11;38.43;;;16.93;;
49934;SDS011;39898;41.762;26.200;2022-12-20T08:11:40;54.50;;;16.63;;
49934;SDS011;39898;41.762;26.200;2022-12-20T08:14:10;54.67;;;21.45;;
49934;SDS011;39898;41.762;26.200;2022-12-20T08:16:37;62.53;;;19.15;;
49934;SDS011;39898;41.762;26.200;2022-12-20T08:19:04;72.00;;;25.40;;
49934;SDS011;39898;41.762;26.200;2022-12-20T08:21:31;57.45;;;24.55;;
49934;SDS011;39898;41.762;26.200;2022-12-20T08:23:58;26.33;;;10.85;;
49934;SDS011;39898;41.762;26.200;2022-12-20T08:26:24;27.83;;;14.00;;
49934;SDS011;39898;41.762;26.200;2022-12-20T08:28:51;29.50;;;12.63;;
49934;SDS011;39898;41.762;26.200;2022-12-20T08:31:20;34.45;;;14.00;;
49934;SDS011;39898;41.762;26.200;2022-12-20T08:33:47;44.03;;;17.63;;
49934;SDS011;39898;41.762;26.200;2022-12-20T08:36:14;47.87;;;18.30;;
49934;SDS011;39898;41.762;26.200;2022-12-20T08:38:41;41.30;;;17.05;;
49934;SDS011;39898;41.762;26.200;2022-12-20T08:41:09;41.75;;;15.98;;
49934;SDS011;39898;41.762;26.200;2022-12-20T08:43:38;35.15;;;12.27;;
49934;SDS011;39898;41.762;26.200;2022-12-20T08:46:06;48.92;;;19.27;;
49934;SDS011;39898;41.762;26.200;2022-12-20T08:48:34;47.45;;;19.17;;
49934;SDS011;39898;41.762;26.200;2022-12-20T08:51:03;42.63;;;16.02;;
49934;SDS011;39898;41.762;26.200;2022-12-20T08:53:32;42.65;;;18.02;;
49934;SDS011;39898;41.762;26.200;2022-12-20T08:58:43;40.45;;;16.30;;
49934;SDS011;39898;41.762;26.200;2022-12-20T09:01:14;37.53;;;16.10;;
49934;SDS011;39898;41.762;26.200;2022-12-20T09:03:43;31.40;;;13.20;;
49934;SDS011;39898;41.762;26.200;2022-12-20T09:06:16;45.00;;;18.58;;
49934;SDS011;39898;41.762;26.200;2022-12-20T09:08:47;47.03;;;16.85;;
49934;SDS011;39898;41.762;26.200;2022-12-20T09:11:18;33.78;;;14.40;;
49934;SDS011;39898;41.762;26.200;2022-12-20T09:13:51;27.35;;;11.43;;
49934;SDS011;39898;41.762;26.200;2022-12-20T09:16:20;36.38;;;15.20;;
49934;SDS011;39898;41.762;26.200;2022-12-20T09:18:49;24.23;;;12.05;;
49934;SDS011;39898;41.762;26.200;2022-12-20T09:21:17;43.92;;;16.67;;
49934;SDS011;39898;41.762;26.200;2022-12-20T09:23:46;33.78;;;13.13;;
49934;SDS011;39898;41.762;26.200;2022-12-20T09:26:15;34.78;;;13.02;;
49934;SDS011;39898;41.762;26.200;2022-12-20T09:28:43;37.05;;;15.45;;
49934;SDS011;39898;41.762;26.200;2022-12-20T09:31:12;36.33;;;15.50;;
49934;SDS011;39898;41.762;26.200;2022-12-20T09:33:41;22.15;;;9.63;;
49934;SDS011;39898;41.762;26.200;2022-12-20T09:36:12;27.20;;;11.97;;
49934;SDS011;39898;41.762;26.200;2022-12-20T09:38:40;28.80;;;11.80;;
49934;SDS011;39898;41.762;26.200;2022-12-20T09:41:07;38.15;;;14.73;;
49934;SDS011;39898;41.762;26.200;2022-12-20T09:43:48;24.02;;;8.93;;
49934;SDS011;39898;41.762;26.200;2022-12-20T09:46:15;28.55;;;12.55;;
49934;SDS011;39898;41.762;26.200;2022-12-20T09:48:42;35.27;;;13.60;;
49934;SDS011;39898;41.762;26.200;2022-12-20T09:57:09;32.40;;;11.77;;
49934;SDS011;39898;41.762;26.200;2022-12-20T09:59:56;32.55;;;10.68;;
49934;SDS011;39898;41.762;26.200;2022-12-20T10:02:24;24.05;;;7.82;;
49934;SDS011;39898;41.762;26.200;2022-12-20T10:05:16;30.08;;;13.10;;
49934;SDS011;39898;41.762;26.200;2022-12-20T10:08:21;36.13;;;12.32;;
49934;SDS011;39898;41.762;26.200;2022-12-20T10:16:40;25.27;;;9.55;;
49934;SDS011;39898;41.762;26.200;2022-12-20T10:26:40;19.80;;;8.07;;
49934;SDS011;39898;41.762;26.200;2022-12-20T10:29:07;21.92;;;8.80;;
49934;SDS011;39898;41.762;26.200;2022-12-20T10:31:34;18.55;;;8.75;;
49934;SDS011;39898;41.762;26.200;2022-12-20T10:34:01;21.87;;;8.73;;
49934;SDS011;39898;41.762;26.200;2022-12-20T10:36:29;23.45;;;9.32;;
49934;SDS011;39898;41.762;26.200;2022-12-20T10:39:01;25.55;;;9.88;;
49934;SDS011;39898;41.762;26.200;2022-12-20T10:44:22;20.70;;;9.43;;
49934;SDS011;39898;41.762;26.200;2022-12-20T10:51:54;17.88;;;8.60;;
49934;SDS011;39898;41.762;26.200;2022-12-20T10:54:31;30.13;;;11.32;;
49934;SDS011;39898;41.762;26.200;2022-12-20T10:57:02;20.83;;;10.30;;
49934;SDS011;39898;41.762;26.200;2022-12-20T11:00:00;21.77;;;8.38;;
49934;SDS011;39898;41.762;26.200;2022-12-20T11:02:35;25.17;;;8.25;;
49934;SDS011;39898;41.762;26.200;2022-12-20T11:07:36;19.08;;;8.93;;
49934;SDS011;39898;41.762;26.200;2022-12-20T11:10:19;25.55;;;9.55;;
49934;SDS011;39898;41.762;26.200;2022-12-20T11:12:51;21.95;;;9.20;;
49934;SDS011;39898;41.762;26.200;2022-12-20T11:15:30;26.30;;;10.50;;
49934;SDS011;39898;41.762;26.200;2022-12-20T11:18:04;21.70;;;9.07;;
49934;SDS011;39898;41.762;26.200;2022-12-20T11:23:16;28.35;;;11.48;;
49934;SDS011;39898;41.762;26.200;2022-12-20T11:31:26;20.23;;;7.75;;
49934;SDS011;39898;41.762;26.200;2022-12-20T11:34:18;20.58;;;9.45;;
49934;SDS011;39898;41.762;26.200;2022-12-20T11:37:09;21.52;;;10.10;;
49934;SDS011;39898;41.762;26.200;2022-12-20T11:42:46;22.48;;;9.15;;
49934;SDS011;39898;41.762;26.200;2022-12-20T11:45:30;21.58;;;7.00;;
49934;SDS011;39898;41.762;26.200;2022-12-20T11:51:04;17.30;;;7.35;;
49934;SDS011;39898;41.762;26.200;2022-12-20T11:53:48;20.33;;;7.28;;
49934;SDS011;39898;41.762;26.200;2022-12-20T11:56:25;17.65;;;7.88;;
49934;SDS011;39898;41.762;26.200;2022-12-20T11:59:11;20.55;;;7.97;;
49934;SDS011;39898;41.762;26.200;2022-12-20T12:01:45;25.23;;;6.60;;
49934;SDS011;39898;41.762;26.200;2022-12-20T12:04:17;15.60;;;6.90;;
49934;SDS011;39898;41.762;26.200;2022-12-20T12:06:53;14.98;;;5.85;;
49934;SDS011;39898;41.762;26.200;2022-12-20T12:09:43;21.17;;;7.90;;
49934;SDS011;39898;41.762;26.200;2022-12-20T12:12:36;19.55;;;7.10;;
49934;SDS011;39898;41.762;26.200;2022-12-20T12:26:04;12.95;;;6.00;;
49934;SDS011;39898;41.762;26.200;2022-12-20T12:28:37;10.75;;;5.40;;
49934;SDS011;39898;41.762;26.200;2022-12-20T12:31:08;15.30;;;6.97;;
49934;SDS011;39898;41.762;26.200;2022-12-20T12:33:42;17.75;;;7.20;;
49934;SDS011;39898;41.762;26.200;2022-12-20T12:36:28;13.75;;;7.03;;
49934;SDS011;39898;41.762;26.200;2022-12-20T12:47:11;11.18;;;5.18;;
49934;SDS011;39898;41.762;26.200;2022-12-20T12:49:42;15.95;;;6.20;;
49934;SDS011;39898;41.762;26.200;2022-12-20T12:52:28;12.95;;;5.90;;
49934;SDS011;39898;41.762;26.200;2022-12-20T12:55:53;14.20;;;5.68;;
49934;SDS011;39898;41.762;26.200;2022-12-20T12:58:43;16.52;;;5.80;;
49934;SDS011;39898;41.762;26.200;2022-12-20T13:11:56;13.35;;;5.60;;
49934;SDS011;39898;41.762;26.200;2022-12-20T13:19:52;17.63;;;6.13;;
49934;SDS011;39898;41.762;26.200;2022-12-20T13:22:21;13.13;;;5.40;;
49934;SDS011;39898;41.762;26.200;2022-12-20T13:41:08;8.25;;;4.90;;
49934;SDS011;39898;41.762;26.200;2022-12-20T13:46:37;10.60;;;4.60;;
49934;SDS011;39898;41.762;26.200;2022-12-20T13:51:24;22.25;;;9.68;;
49934;SDS011;39898;41.762;26.200;2022-12-20T13:54:02;19.08;;;8.40;;
49934;SDS011;39898;41.762;26.200;2022-12-20T13:56:33;42.63;;;16.27;;
49934;SDS011;39898;41.762;26.200;2022-12-20T14:01:57;45.28;;;16.70;;
49934;SDS011;39898;41.762;26.200;2022-12-20T14:04:27;86.18;;;30.05;;
49934;SDS011;39898;41.762;26.200;2022-12-20T14:07:07;55.38;;;20.33;;
49934;SDS011;39898;41.762;26.200;2022-12-20T14:09:38;26.17;;;9.57;;
49934;SDS011;39898;41.762;26.200;2022-12-20T14:12:14;41.97;;;13.82;;
49934;SDS011;39898;41.762;26.200;2022-12-20T14:14:52;62.42;;;22.98;;
49934;SDS011;39898;41.762;26.200;2022-12-20T14:20:03;21.02;;;8.02;;
49934;SDS011;39898;41.762;26.200;2022-12-20T14:23:05;20.58;;;8.75;;
49934;SDS011;39898;41.762;26.200;2022-12-20T14:25:40;42.58;;;18.48;;
49934;SDS011;39898;41.762;26.200;2022-12-20T14:28:14;13.02;;;6.32;;
49934;SDS011;39898;41.762;26.200;2022-12-20T14:30:52;16.92;;;8.45;;
49934;SDS011;39898;41.762;26.200;2022-12-20T14:33:20;46.75;;;17.27;;
49934;SDS011;39898;41.762;26.200;2022-12-20T14:35:49;25.88;;;11.50;;
49934;SDS011;39898;41.762;26.200;2022-12-20T14:38:21;26.15;;;7.85;;
49934;SDS011;39898;41.762;26.200;2022-12-20T14:40:50;23.48;;;9.65;;
49934;SDS011;39898;41.762;26.200;2022-12-20T14:43:24;27.80;;;9.43;;
49934;SDS011;39898;41.762;26.200;2022-12-20T14:46:14;20.92;;;9.15;;
49934;SDS011;39898;41.762;26.200;2022-12-20T14:48:44;28.05;;;11.27;;
49934;SDS011;39898;41.762;26.200;2022-12-20T14:51:12;28.45;;;11.10;;
49934;SDS011;39898;41.762;26.200;2022-12-20T14:53:45;19.85;;;9.18;;
49934;SDS011;39898;41.762;26.200;2022-12-20T14:56:16;17.15;;;8.52;;
49934;SDS011;39898;41.762;26.200;2022-12-20T14:59:04;21.48;;;9.27;;
49934;SDS011;39898;41.762;26.200;2022-12-20T15:01:38;18.58;;;7.78;;
49934;SDS011;39898;41.762;26.200;2022-12-20T15:07:00;16.67;;;7.20;;
49934;SDS011;39898;41.762;26.200;2022-12-20T15:09:28;21.55;;;8.18;;
49934;SDS011;39898;41.762;26.200;2022-12-20T15:11:55;18.55;;;9.10;;
49934;SDS011;39898;41.762;26.200;2022-12-20T15:17:04;30.48;;;12.00;;
49934;SDS011;39898;41.762;26.200;2022-12-20T15:19:36;39.83;;;14.55;;
49934;SDS011;39898;41.762;26.200;2022-12-20T15:22:14;46.53;;;17.40;;
49934;SDS011;39898;41.762;26.200;2022-12-20T15:24:44;51.40;;;20.15;;
49934;SDS011;39898;41.762;26.200;2022-12-20T15:27:11;41.50;;;16.60;;
49934;SDS011;39898;41.762;26.200;2022-12-20T15:29:40;31.55;;;12.40;;
49934;SDS011;39898;41.762;26.200;2022-12-20T15:32:15;25.17;;;11.30;;
49934;SDS011;39898;41.762;26.200;2022-12-20T15:34:48;27.77;;;13.45;;
49934;SDS011;39898;41.762;26.200;2022-12-20T15:37:15;26.83;;;12.77;;
49934;SDS011;39898;41.762;26.200;2022-12-20T15:39:44;32.00;;;16.77;;
49934;SDS011;39898;41.762;26.200;2022-12-20T15:42:12;44.45;;;19.63;;
49934;SDS011;39898;41.762;26.200;2022-12-20T15:44:44;35.22;;;17.33;;
49934;SDS011;39898;41.762;26.200;2022-12-20T15:47:11;31.55;;;15.00;;
49934;SDS011;39898;41.762;26.200;2022-12-20T15:49:39;32.03;;;13.90;;
49934;SDS011;39898;41.762;26.200;2022-12-20T15:52:19;28.02;;;11.55;;
49934;SDS011;39898;41.762;26.200;2022-12-20T15:54:47;29.15;;;13.07;;
49934;SDS011;39898;41.762;26.200;2022-12-20T15:57:14;40.63;;;15.80;;
49934;SDS011;39898;41.762;26.200;2022-12-20T15:59:41;24.77;;;11.75;;
49934;SDS011;39898;41.762;26.200;2022-12-20T16:02:28;31.67;;;14.23;;
49934;SDS011;39898;41.762;26.200;2022-12-20T16:04:56;24.58;;;10.20;;
49934;SDS011;39898;41.762;26.200;2022-12-20T16:07:24;26.75;;;10.70;;
49934;SDS011;39898;41.762;26.200;2022-12-20T16:09:51;25.90;;;9.98;;
49934;SDS011;39898;41.762;26.200;2022-12-20T16:12:22;30.20;;;12.93;;
49934;SDS011;39898;41.762;26.200;2022-12-20T16:14:51;35.78;;;15.35;;
49934;SDS011;39898;41.762;26.200;2022-12-20T16:17:18;48.63;;;19.80;;
49934;SDS011;39898;41.762;26.200;2022-12-20T16:19:45;44.03;;;19.45;;
49934;SDS011;39898;41.762;26.200;2022-12-20T16:22:15;39.05;;;17.50;;
49934;SDS011;39898;41.762;26.200;2022-12-20T16:24:44;61.22;;;25.58;;
49934;SDS011;39898;41.762;26.200;2022-12-20T16:27:11;75.78;;;30.65;;
49934;SDS011;39898;41.762;26.200;2022-12-20T16:29:38;50.85;;;21.55;;
49934;SDS011;39898;41.762;26.200;2022-12-20T16:34:40;64.07;;;28.48;;
49934;SDS011;39898;41.762;26.200;2022-12-20T16:37:07;42.97;;;19.80;;
49934;SDS011;39898;41.762;26.200;2022-12-20T16:39:34;60.42;;;27.27;;
49934;SDS011;39898;41.762;26.200;2022-12-20T16:42:01;43.13;;;19.67;;
49934;SDS011;39898;41.762;26.200;2022-12-20T16:44:27;59.22;;;22.40;;
49934;SDS011;39898;41.762;26.200;2022-12-20T16:46:54;54.50;;;21.70;;
49934;SDS011;39898;41.762;26.200;2022-12-20T16:49:21;37.30;;;15.25;;
49934;SDS011;39898;41.762;26.200;2022-12-20T16:51:48;41.55;;;16.65;;
49934;SDS011;39898;41.762;26.200;2022-12-20T16:54:19;38.72;;;17.85;;
49934;SDS011;39898;41.762;26.200;2022-12-20T16:56:49;52.50;;;22.08;;
49934;SDS011;39898;41.762;26.200;2022-12-20T16:59:20;44.85;;;19.85;;
49934;SDS011;39898;41.762;26.200;2022-12-20T17:01:51;39.92;;;17.35;;
49934;SDS011;39898;41.762;26.200;2022-12-20T17:04:21;40.63;;;18.30;;
49934;SDS011;39898;41.762;26.200;2022-12-20T17:06:49;44.42;;;20.13;;
49934;SDS011;39898;41.762;26.200;2022-12-20T17:09:16;51.97;;;21.70;;
49934;SDS011;39898;41.762;26.200;2022-12-20T17:11:44;33.42;;;15.77;;
49934;SDS011;39898;41.762;26.200;2022-12-20T17:14:11;31.05;;;13.13;;
49934;SDS011;39898;41.762;26.200;2022-12-20T17:16:39;29.88;;;13.52;;
49934;SDS011;39898;41.762;26.200;2022-12-20T17:19:07;31.98;;;14.55;;
49934;SDS011;39898;41.762;26.200;2022-12-20T17:21:36;53.50;;;21.23;;
49934;SDS011;39898;41.762;26.200;2022-12-20T17:24:23;42.08;;;18.17;;
49934;SDS011;39898;41.762;26.200;2022-12-20T17:26:50;43.10;;;19.85;;
49934;SDS011;39898;41.762;26.200;2022-12-20T17:29:17;57.00;;;23.50;;
49934;SDS011;39898;41.762;26.200;2022-12-20T17:31:45;45.28;;;20.38;;
49934;SDS011;39898;41.762;26.200;2022-12-20T17:34:17;51.72;;;23.27;;
49934;SDS011;39898;41.762;26.200;2022-12-20T17:36:44;46.00;;;21.42;;
49934;SDS011;39898;41.762;26.200;2022-12-20T17:39:12;40.88;;;20.23;;
49934;SDS011;39898;41.762;26.200;2022-12-20T17:41:39;43.67;;;21.35;;
49934;SDS011;39898;41.762;26.200;2022-12-20T17:44:13;41.95;;;20.52;;
49934;SDS011;39898;41.762;26.200;2022-12-20T17:46:43;55.25;;;24.77;;
49934;SDS011;39898;41.762;26.200;2022-12-20T17:49:10;34.10;;;17.53;;
49934;SDS011;39898;41.762;26.200;2022-12-20T17:51:37;47.83;;;25.25;;
49934;SDS011;39898;41.762;26.200;2022-12-20T17:54:03;49.13;;;23.60;;
49934;SDS011;39898;41.762;26.200;2022-12-20T17:56:31;43.22;;;21.35;;
49934;SDS011;39898;41.762;26.200;2022-12-20T17:59:01;44.22;;;17.75;;
49934;SDS011;39898;41.762;26.200;2022-12-20T18:01:30;76.45;;;34.00;;
49934;SDS011;39898;41.762;26.200;2022-12-20T18:04:00;58.30;;;23.80;;
49934;SDS011;39898;41.762;26.200;2022-12-20T18:06:31;56.00;;;21.13;;
49934;SDS011;39898;41.762;26.200;2022-12-20T18:09:00;38.38;;;17.77;;
49934;SDS011;39898;41.762;26.200;2022-12-20T18:11:27;53.47;;;21.25;;
49934;SDS011;39898;41.762;26.200;2022-12-20T18:13:55;46.97;;;22.42;;
49934;SDS011;39898;41.762;26.200;2022-12-20T18:16:24;36.60;;;18.55;;
49934;SDS011;39898;41.762;26.200;2022-12-20T18:18:53;45.03;;;21.38;;
49934;SDS011;39898;41.762;26.200;2022-12-20T18:21:21;51.28;;;22.50;;
49934;SDS011;39898;41.762;26.200;2022-12-20T18:23:49;44.25;;;20.40;;
49934;SDS011;39898;41.762;26.200;2022-12-20T18:26:17;43.28;;;19.50;;
49934;SDS011;39898;41.762;26.200;2022-12-20T18:28:51;46.00;;;21.17;;
49934;SDS011;39898;41.762;26.200;2022-12-20T18:31:21;36.92;;;18.13;;
49934;SDS011;39898;41.762;26.200;2022-12-20T18:33:52;40.08;;;19.17;;
49934;SDS011;39898;41.762;26.200;2022-12-20T18:36:33;52.35;;;22.40;;